Latest Weather Observations for Port Hedland

IDW60801

Issued at 1:13 pm WST Monday 30 March 2020 (issued every 10 minutes, with the page automatically refreshed every 10 minutes)

About weather observations | Map of weather stations | Latest weather observations for WA | Other Formats
Station Details ID: 004032 Name: PORT HEDLAND AIRPORT Lat: -20.37 Lon: 118.63 Height: 6.4 m
Data from the previous 72 hours. | See also: Recent months at Port Hedland
Date/Time
WST
Temp
°C
App
Temp
°C
Dew
Point
°C
Rel
Hum
%
Delta-T
°C
Wind Press
QNH
hPa
Press
MSL
hPa
Rain since
9am
mm
Dir  Spd
km/h
Gust
km/h
Spd
kts
Gust
kts
30/01:00pm 37.1 37.5 22.4 42 10.2 NNE 24 28 13 15 1007.3 1007.2 0.0
30/12:30pm 36.7 37.5 22.4 43 9.9 NNE 22 28 12 15 1007.8 1007.7 0.0
30/12:00pm 36.2 36.9 21.2 41 10.2 NNE 19 24 10 13 1008.0 1007.9 0.0
30/11:30am 36.7 38.3 22.8 44 9.6 NNE 19 24 10 13 1008.6 1008.5 0.0
30/11:00am 36.0 38.6 24.9 52 7.9 NNE 20 33 11 18 1008.9 1008.8 0.0
30/10:30am 37.9 37.5 16.2 27 13.9 SE 13 20 7 11 1009.3 1009.2 0.0
30/10:00am 38.0 37.0 15.7 26 14.2 ESE 15 26 8 14 1009.7 1009.6 0.0
30/09:30am 36.3 37.4 19.7 37 11.1 ESE 13 20 7 11 1009.8 1009.7 0.0
30/09:00am 34.5 36.9 21.5 46 8.8 SE 11 15 6 8 1010.0 1009.9 0.0
30/08:30am 32.4 36.3 23.6 59 6.1 SSW 9 15 5 8 1010.0 1009.9 0.0
30/08:00am 30.3 35.5 25.1 73 3.7 SSW 7 9 4 5 1009.9 1009.8 0.0
30/07:30am 28.4 33.7 25.2 83 2.2 S 7 11 4 6 1009.9 1009.8 0.0
30/07:00am 26.9 31.5 24.7 88 1.5 S 9 11 5 6 1009.5 1009.4 0.0
30/06:30am 25.8 30.8 24.8 94 0.7 SSW 7 9 4 5 1009.2 1009.1 0.0
30/06:00am 25.6 30.3 24.9 96 0.5 SSW 9 11 5 6 1008.9 1008.8 0.0
30/05:30am 26.0 30.6 25.3 96 0.5 SW 11 13 6 7 1008.7 1008.6 0.0
30/05:00am 26.4 31.2 25.7 96 0.5 SW 11 11 6 6 1008.6 1008.5 0.0
30/04:30am 26.4 30.7 25.5 95 0.6 WSW 13 13 7 7 1008.2 1008.1 0.0
30/04:00am 27.2 32.7 26.1 94 0.8 NNW 9 11 5 6 1008.2 1008.1 0.0
30/03:30am 27.0 31.5 25.8 93 0.8 NW 13 17 7 9 1008.3 1008.2 0.0
30/03:00am 27.2 32.2 25.4 90 1.3 NNW 9 11 5 6 1008.5 1008.4 0.0
30/02:30am 27.3 31.7 25.7 91 1.1 NNW 13 15 7 8 1008.6 1008.5 0.0
30/02:00am 27.2 31.8 25.4 90 1.3 NNW 11 15 6 8 1008.5 1008.4 0.0
30/01:30am 27.7 34.1 25.5 88 1.5 N 2 7 1 4 1008.8 1008.7 0.0
30/01:00am 27.7 33.9 26.3 92 1.0 NW 6 7 3 4 1008.6 1008.5 0.0
30/12:30am 28.0 33.4 26.6 92 1.0 WNW 11 13 6 7 1008.7 1008.6 0.0
30/12:00am 28.4 34.1 27.0 92 1.0 NW 11 15 6 8 1008.9 1008.8 0.0
 
Date/Time
WST
Temp
°C
App
Temp
°C
Dew
Point
°C
Rel
Hum
%
Delta-T
°C
Wind Press
QNH
hPa
Press
MSL
hPa
Rain since
9am
mm
Dir  Spd
km/h
Gust
km/h
Spd
kts
Gust
kts
29/11:30pm 28.7 34.2 27.3 92 1.0 WNW 13 15 7 8 1009.2 1009.1 0.0
29/11:00pm 29.0 35.5 27.6 92 1.0 WNW 9 13 5 7 1009.5 1009.4 0.0
29/10:30pm 29.4 35.1 27.6 90 1.3 WNW 13 15 7 8 1009.5 1009.4 0.0
29/10:00pm 29.4 35.0 27.4 89 1.4 WNW 13 17 7 9 1009.4 1009.3 0.0
29/09:30pm 29.2 34.8 27.4 90 1.3 NNW 13 17 7 9 1009.5 1009.4 0.0
29/09:00pm 29.4 34.8 27.2 88 1.6 WNW 13 17 7 9 1009.2 1009.1 0.0
29/08:30pm 29.6 35.8 27.2 87 1.7 WNW 9 13 5 7 1008.7 1008.6 0.0
29/08:00pm 30.1 35.2 27.3 85 2.0 WNW 15 19 8 10 1008.5 1008.4 0.0
29/07:30pm 30.2 35.8 27.4 85 2.0 WNW 13 17 7 9 1008.0 1007.9 0.0
29/07:00pm 30.5 36.0 27.3 83 2.3 WNW 13 15 7 8 1007.7 1007.6 0.0
29/06:30pm 31.1 36.4 27.0 79 3.0 NW 13 19 7 10 1007.3 1007.2 0.0
29/06:00pm 32.1 37.1 26.6 72 4.0 NW 13 19 7 10 1007.0 1006.9 0.0
29/05:30pm 33.4 37.2 26.4 66 5.0 WNW 19 24 10 13 1006.6 1006.5 0.0
29/05:00pm 34.2 36.9 25.6 61 6.1 NW 22 28 12 15 1006.4 1006.3 0.0
29/04:30pm 34.7 37.3 26.1 61 6.2 WNW 24 32 13 17 1006.3 1006.2 0.0
29/04:00pm 35.7 38.3 26.1 57 6.9 NW 24 30 13 16 1006.3 1006.2 0.0
29/03:30pm 36.7 39.1 25.2 51 8.2 NW 22 30 12 16 1006.2 1006.1 0.0
29/03:00pm 36.4 36.9 23.3 47 9.2 NNW 26 32 14 17 1006.4 1006.3 0.0
29/02:30pm 37.3 38.7 24.8 49 8.9 NNW 26 32 14 17 1006.4 1006.3 0.0
29/02:00pm 38.3 38.4 21.9 38 11.3 NNW 24 30 13 16 1006.7 1006.6 0.0
29/01:30pm 38.5 39.4 23.3 41 10.6 NNW 24 30 13 16 1007.0 1006.9 0.0
29/01:00pm 38.3 38.7 21.0 36 11.8 NNW 20 26 11 14 1007.4 1007.3 0.0
29/12:30pm 38.4 38.0 19.3 33 12.7 N 20 28 11 15 1007.8 1007.7 0.0
29/12:00pm 40.6 39.5 17.3 25 15.3 NNE 19 26 10 14 1007.9 1007.8 0.0
29/11:30am 42.0 38.3 7.9 13 19.7 ESE 17 26 9 14 1008.3 1008.2 0.0
29/11:00am 41.3 36.5 7.4 13 19.4 SE 22 30 12 16 1008.7 1008.6 0.0
29/10:30am 41.2 35.9 8.4 14 19.0 SE 26 39 14 21 1009.0 1008.9 0.0
29/10:00am 39.9 34.8 9.3 16 17.9 SE 26 35 14 19 1009.4 1009.3 0.0
29/09:30am 38.5 34.3 12.3 21 15.9 SE 26 33 14 18 1009.6 1009.5 0.0
29/09:00am 36.2 34.2 17.4 33 12.2 SSE 24 33 13 18 1009.7 1009.6 0.0
29/08:30am 32.9 35.2 22.7 55 7.0 S 15 19 8 10 1009.6 1009.5 0.0
29/08:00am 30.3 33.8 24.9 73 3.8 SSW 15 19 8 10 1009.4 1009.3 0.0
29/07:30am 27.7 32.7 26.5 93 0.9 SSW 13 17 7 9 1009.4 1009.3 0.0
29/07:00am 26.0 31.4 26.0 100 0.0 SSW 9 13 5 7 1009.3 1009.2 0.0
29/06:35am 25.4 30.0 25.4 100 0.0 S 11 15 6 8 1009.1 1009.0 0.0
29/06:31am 25.4 30.0 25.4 100 0.0 S 11 15 6 8 1009.1 1009.0 0.0
29/06:30am 25.5 30.2 25.5 100 0.0 S 11 15 6 8 1009.1 1009.0 0.0
29/06:00am 25.4 30.0 25.4 100 0.0 SSW 11 20 6 11 1008.7 1008.6 0.0
29/05:30am 25.3 30.2 25.3 100 0.0 SSW 9 11 5 6 1008.4 1008.3 0.0
29/05:13am 25.2 30.5 25.2 100 0.0 SSE 7 9 4 5 1008.5 1008.4 0.0
29/05:09am 25.2 30.6 25.2 100 0.0 SSE 6 9 3 5 1008.5 1008.4 0.0
29/05:00am 25.2 30.5 25.2 100 0.0 SSE 7 11 4 6 1008.4 1008.3 0.0
29/04:30am 25.3 30.5 25.1 99 0.1 S 7 9 4 5 1008.4 1008.3 0.0
29/04:00am 25.7 31.1 25.5 99 0.1 SSW 7 11 4 6 1008.3 1008.2 0.0
29/03:30am 26.2 33.4 26.2 100 0.0 CALM 0 9 0 5 1008.3 1008.2 0.0
29/03:00am 25.7 31.3 25.4 98 0.2 NE 6 9 3 5 1008.3 1008.2 0.0
29/02:30am 26.0 30.9 25.8 99 0.1 WSW 11 11 6 6 1008.3 1008.2 0.0
29/02:00am 26.5 32.6 26.2 98 0.2 SW 6 9 3 5 1008.6 1008.5 0.0
29/01:30am 26.5 31.9 26.0 97 0.4 WSW 9 11 5 6 1008.7 1008.6 0.0
29/01:00am 26.8 32.0 26.3 97 0.4 WSW 11 13 6 7 1008.9 1008.8 0.0
29/12:30am 27.4 32.4 26.5 95 0.6 WSW 13 13 7 7 1009.0 1008.9 0.0
29/12:00am 28.0 32.6 26.6 92 1.0 WSW 15 19 8 10 1008.9 1008.8 0.0
 
Date/Time
WST
Temp
°C
App
Temp
°C
Dew
Point
°C
Rel
Hum
%
Delta-T
°C
Wind Press
QNH
hPa
Press
MSL
hPa
Rain since
9am
mm
Dir  Spd
km/h
Gust
km/h
Spd
kts
Gust
kts
28/11:30pm 28.5 33.4 26.9 91 1.1 W 15 20 8 11 1009.4 1009.3 0.0
28/11:00pm 28.2 33.7 26.2 89 1.4 W 9 13 5 7 1009.8 1009.7 0.0
28/10:30pm 29.0 33.6 26.6 87 1.7 W 15 17 8 9 1010.0 1009.9 0.0
28/10:00pm 28.4 33.3 27.0 92 1.0 WNW 15 19 8 10 1009.9 1009.8 0.0
28/09:30pm 29.0 35.2 27.2 90 1.3 NW 9 11 5 6 1010.1 1010.0 0.0
28/09:00pm 29.0 34.1 27.2 90 1.3 W 15 17 8 9 1009.9 1009.8 0.0
28/08:30pm 29.2 34.4 26.8 87 1.7 NW 13 15 7 8 1009.7 1009.6 0.0
28/08:00pm 29.5 35.1 26.9 86 1.9 NW 11 13 6 7 1009.4 1009.3 0.0
28/07:30pm 30.1 35.2 26.7 82 2.4 WNW 13 17 7 9 1009.2 1009.1 0.0
28/07:00pm 30.4 35.4 26.6 80 2.7 WNW 13 15 7 8 1008.7 1008.6 0.0
28/06:30pm 30.9 35.2 26.6 78 3.1 NW 17 22 9 12 1008.3 1008.2 0.0
28/06:00pm 31.8 34.7 25.9 71 4.2 WNW 22 28 12 15 1008.0 1007.9 0.0
28/05:30pm 32.9 35.4 25.4 64 5.3 NW 22 26 12 14 1007.6 1007.5 0.0
28/05:00pm 33.6 35.3 25.3 62 5.9 NW 26 33 14 18 1007.5 1007.4 0.0
28/04:30pm 34.8 36.5 25.3 57 6.8 NW 26 32 14 17 1007.4 1007.3 0.0
28/04:00pm 35.0 36.5 24.9 55 7.2 NW 26 32 14 17 1007.3 1007.2 0.0
28/03:30pm 35.0 36.8 25.5 58 6.8 WNW 26 32 14 17 1007.4 1007.3 0.0
28/03:00pm 35.9 37.5 24.5 52 8.1 NNW 24 30 13 16 1007.7 1007.6 0.0
28/02:30pm 36.7 39.2 25.9 54 7.8 NNW 24 30 13 16 1007.9 1007.8 0.0
28/02:00pm 36.9 39.2 25.7 52 8.1 NNW 24 32 13 17 1008.2 1008.1 0.0
28/01:30pm 36.1 37.8 25.3 53 7.7 NNW 26 33 14 18 1008.5 1008.4 0.0
28/01:00pm 37.4 39.2 24.9 49 8.9 NNW 24 30 13 16 1008.8 1008.7 0.0
28/12:30pm 38.4 40.9 24.7 45 9.8 NNW 20 26 11 14 1009.3 1009.2 0.0
28/12:00pm 41.2 44.4 23.1 35 12.7 NW 11 20 6 11 1009.7 1009.6 0.0
28/11:30am 40.9 39.8 11.9 18 17.6 S 9 19 5 10 1010.2 1010.1 0.0
28/11:00am 39.8 39.4 14.1 22 16.1 S 9 15 5 8 1010.7 1010.6 0.0
28/10:30am 39.0 38.3 15.4 25 15.0 S 13 19 7 10 1011.2 1011.1 0.0
28/10:00am 38.2 37.6 14.7 24 14.7 SSW 11 17 6 9 1011.4 1011.3 0.0
28/09:30am 37.7 36.8 14.9 26 14.3 SSW 13 19 7 10 1011.6 1011.5 0.0
28/09:00am 36.2 35.5 15.3 28 13.1 WSW 13 17 7 9 1011.9 1011.8 0.0
28/08:30am 34.8 35.3 17.5 35 11.1 WSW 11 17 6 9 1011.9 1011.8 0.0
28/08:00am 32.4 33.3 19.3 46 8.6 SW 13 17 7 9 1011.9 1011.8 0.0
28/07:39am 31.1 33.9 21.6 57 6.4 SW 9 13 5 7 1012.0 1011.9 0.0
28/07:30am 29.7 32.7 22.7 66 4.8 SW 11 15 6 8 1012.0 1011.9 0.0
28/07:00am 27.3 31.1 24.7 86 1.8 SW 13 15 7 8 1011.8 1011.7 0.0
28/06:30am 26.1 30.2 25.2 95 0.6 WSW 13 13 7 7 1011.8 1011.7 0.0
28/06:09am 26.2 30.9 25.5 96 0.5 W 11 13 6 7 1011.7 1011.6 0.0
28/06:00am 26.4 31.3 25.9 97 0.4 WSW 11 13 6 7 1011.7 1011.6 0.0
28/05:30am 26.7 32.2 26.7 100 0.0 WSW 11 15 6 8 1011.5 1011.4 0.0
28/05:00am 26.9 32.5 26.9 100 0.0 WSW 11 11 6 6 1011.3 1011.2 0.0
28/04:30am 27.1 33.1 26.9 99 0.1 WSW 9 11 5 6 1011.1 1011.0 0.0
28/04:00am 27.4 33.6 27.2 99 0.1 SSW 9 11 5 6 1011.1 1011.0 0.0
28/03:30am 27.6 33.0 27.1 97 0.4 SSW 13 15 7 8 1011.1 1011.0 0.0
28/03:00am 27.4 33.9 27.1 98 0.2 SW 7 9 4 5 1011.0 1010.9 0.0
28/02:46am 27.5 33.7 27.2 98 0.2 SW 9 13 5 7 1010.8 1010.7 0.0
28/02:30am 27.4 33.1 26.5 95 0.6 SW 9 11 5 6 1010.8 1010.7 0.0
28/02:26am 27.4 33.3 26.7 96 0.5 SW 9 11 5 6 1010.8 1010.7 0.0
28/02:00am 27.6 33.6 26.4 93 0.9 SW 7 9 4 5 1010.8 1010.7 0.0
28/01:30am 28.0 34.3 26.8 93 0.9 WSW 7 11 4 6 1010.9 1010.8 0.0
28/01:00am 28.6 35.2 27.0 91 1.1 WNW 6 7 3 4 1011.2 1011.1 0.0
28/12:30am 28.9 34.6 27.1 90 1.3 SW 11 13 6 7 1011.3 1011.2 0.0
28/12:00am 29.2 37.1 27.2 89 1.4 CALM 0 7 0 4 1011.3 1011.2 0.0
 
Date/Time
WST
Temp
°C
App
Temp
°C
Dew
Point
°C
Rel
Hum
%
Delta-T
°C
Wind Press
QNH
hPa
Press
MSL
hPa
Rain since
9am
mm
Dir  Spd
km/h
Gust
km/h
Spd
kts
Gust
kts
27/11:30pm 29.3 35.6 27.3 89 1.4 SW 9 11 5 6 1011.3 1011.2 0.0
27/11:00pm 29.3 35.4 27.1 88 1.6 WSW 9 11 5 6 1011.3 1011.2 0.0
27/10:30pm 29.6 35.8 27.2 87 1.7 SW 9 11 5 6 1011.4 1011.3 0.0
27/10:00pm 29.6 36.0 27.0 86 1.9 WNW 7 9 4 5 1011.5 1011.4 0.0
27/09:30pm 29.5 34.9 27.1 87 1.7 W 13 13 7 7 1011.5 1011.4 0.0
27/09:00pm 29.5 35.2 27.1 87 1.7 WNW 11 11 6 6 1011.4 1011.3 0.0
27/08:30pm 29.7 35.8 27.1 86 1.9 NW 9 11 5 6 1011.3 1011.2 0.0
27/08:00pm 30.0 35.5 26.8 83 2.3 NW 11 15 6 8 1010.9 1010.8 0.0
27/07:30pm 30.4 35.7 27.0 82 2.4 WNW 13 19 7 10 1010.5 1010.4 0.0
27/07:00pm 30.8 35.5 26.7 79 2.9 WNW 15 19 8 10 1010.2 1010.1 0.0
27/06:30pm 31.4 35.5 26.4 75 3.6 NW 17 22 9 12 1009.9 1009.8 0.0
27/06:00pm 32.4 35.7 25.7 68 4.8 NW 19 24 10 13 1009.6 1009.5 0.0
27/05:30pm 33.6 36.1 24.8 60 6.2 NW 20 26 11 14 1009.5 1009.4 0.0
27/05:00pm 35.2 37.1 23.8 51 8.0 NNW 20 26 11 14 1009.3 1009.2 0.0
27/04:30pm 36.3 38.1 24.2 49 8.5 NW 22 28 12 15 1009.0 1008.9 0.0
27/04:00pm 37.1 37.6 22.0 41 10.4 NW 22 28 12 15 1009.0 1008.9 0.0
27/03:30pm 37.0 35.7 20.7 38 11.0 NNW 28 33 15 18 1009.1 1009.0 0.0
27/03:00pm 38.3 37.2 21.0 36 11.8 NNW 28 33 15 18 1009.3 1009.2 0.0
27/02:30pm 40.1 38.0 16.3 24 15.3 N 22 30 12 16 1009.5 1009.4 0.0
27/02:00pm 40.2 38.8 17.0 25 15.1 N 20 24 11 13 1009.8 1009.7 0.0
27/01:30pm 40.3 38.4 15.8 23 15.7 NNW 20 26 11 14 1010.1 1010.0 0.0

Other formats

Comma delimited format used in spreadsheet applications
http://www.bom.gov.au/fwo/IDW60801/IDW60801.94312.axf

JavaScript Object Notation format (JSON) in row-major order
http://www.bom.gov.au/fwo/IDW60801/IDW60801.94312.json

Data quality

Most of these data are generated automatically and are frequently updated. Quality checks on data are not normally performed. It is possible for incorrect values to appear. Refer to information at About Latest Weather Observations and please check the disclaimer before using these data.